Time;durP1;ratioP1;P1;durP2;ratioP2;P2;SDS_P1;SDS_P2;PMS_P1;PMS_P2;Temp;Humidity;BMP_temperature;BMP_pressure;BME280_temperature;BME280_humidity;BME280_pressure;Samples;Min_cycle;Max_cycle;Signal;HPM_P1;HPM_P2
2021/08/11 00:01:27;;;;;;;71.13;11.30;;;;;;;;;;5021344;28;20520;-46
2021/08/11 00:03:57;;;;;;;71.95;11.02;;;;;;;;;;5020843;28;20092;-46
2021/08/11 00:06:24;;;;;;;83.18;11.27;;;;;;;;;;5015045;28;20022;-38
2021/08/11 00:08:51;;;;;;;75.63;11.73;;;;;;;;;;5022299;28;20025;-39
2021/08/11 00:11:18;;;;;;;85.85;12.00;;;;;;;;;;5025593;28;20033;-36
2021/08/11 00:13:45;;;;;;;81.32;12.65;;;;;;;;;;5025634;28;20033;-49
2021/08/11 00:16:12;;;;;;;65.60;11.55;;;;;;;;;;5025248;28;20036;-47
2021/08/11 00:18:39;;;;;;;74.05;12.00;;;;;;;;;;5019628;28;20021;-36
2021/08/11 00:21:06;;;;;;;81.72;12.65;;;;;;;;;;5026565;28;20484;-37
2021/08/11 00:23:34;;;;;;;79.72;13.75;;;;;;;;;;5021633;28;20374;-36
2021/08/11 00:26:01;;;;;;;86.45;11.95;;;;;;;;;;5021125;28;20033;-36
2021/08/11 00:28:28;;;;;;;65.03;12.63;;;;;;;;;;4998242;28;20026;-35
2021/08/11 00:30:55;;;;;;;76.07;13.30;;;;;;;;;;5018944;28;20030;-37
2021/08/11 00:33:22;;;;;;;80.65;13.65;;;;;;;;;;5014991;28;20111;-43
2021/08/11 00:35:49;;;;;;;74.32;11.75;;;;;;;;;;5016028;28;20504;-36
2021/08/11 00:38:16;;;;;;;82.60;12.25;;;;;;;;;;5015964;28;20026;-37
2021/08/11 00:40:43;;;;;;;72.97;13.77;;;;;;;;;;5016708;28;20512;-37
2021/08/11 00:43:11;;;;;;;78.72;13.30;;;;;;;;;;5023905;28;20080;-38
2021/08/11 00:45:39;;;;;;;73.63;13.38;;;;;;;;;;5028419;28;20459;-37
2021/08/11 00:48:09;;;;;;;90.28;14.73;;;;;;;;;;5016987;28;20029;-47
2021/08/11 00:50:36;;;;;;;89.70;14.98;;;;;;;;;;5027865;28;20021;-44
2021/08/11 00:53:05;;;;;;;73.40;15.60;;;;;;;;;;5026020;28;20083;-41
2021/08/11 00:55:35;;;;;;;96.32;20.92;;;;;;;;;;5023710;28;20493;-40
2021/08/11 00:58:03;;;;;;;91.45;21.55;;;;;;;;;;5022158;28;20030;-36
2021/08/11 01:00:31;;;;;;;85.57;21.13;;;;;;;;;;5017966;28;20026;-39
2021/08/11 01:02:58;;;;;;;82.32;24.13;;;;;;;;;;5025480;28;20037;-40
2021/08/11 01:05:25;;;;;;;88.55;22.65;;;;;;;;;;5026407;28;20044;-40
2021/08/11 01:07:53;;;;;;;93.80;25.08;;;;;;;;;;5028573;28;20540;-38
2021/08/11 01:10:21;;;;;;;93.47;23.85;;;;;;;;;;5028453;28;20029;-42
2021/08/11 01:12:48;;;;;;;103.35;23.63;;;;;;;;;;5016291;28;20049;-38
2021/08/11 01:15:18;;;;;;;90.60;23.33;;;;;;;;;;5023889;28;20079;-51
2021/08/11 01:17:45;;;;;;;98.07;24.08;;;;;;;;;;5019931;28;20085;-36
2021/08/11 01:20:12;;;;;;;88.63;23.13;;;;;;;;;;5026423;28;20034;-57
2021/08/11 01:22:42;;;;;;;83.35;21.80;;;;;;;;;;5023201;28;20033;-40
2021/08/11 01:25:31;;;;;;;88.78;21.60;;;;;;;;;;5028443;28;20025;-40
2021/08/11 01:28:01;;;;;;;76.75;21.38;;;;;;;;;;5019564;28;20058;-41
2021/08/11 01:30:31;;;;;;;88.45;21.60;;;;;;;;;;5027808;28;20511;-46
2021/08/11 01:33:16;;;;;;;79.33;20.40;;;;;;;;;;4927064;28;2850787;-38
2021/08/11 01:35:47;;;;;;;86.60;20.75;;;;;;;;;;5029974;28;20714;-37
2021/08/11 01:38:15;;;;;;;89.60;19.67;;;;;;;;;;5027237;28;20057;-39
2021/08/11 01:40:48;;;;;;;82.00;18.63;;;;;;;;;;5018859;28;20640;-43
2021/08/11 01:43:16;;;;;;;72.60;19.13;;;;;;;;;;5023793;28;20034;-43
2021/08/11 01:45:44;;;;;;;68.10;18.30;;;;;;;;;;5029771;28;20068;-36
2021/08/11 01:48:15;;;;;;;71.45;18.85;;;;;;;;;;5024963;28;20041;-57
2021/08/11 01:50:45;;;;;;;69.97;17.47;;;;;;;;;;5028803;28;20025;-56
2021/08/11 01:53:13;;;;;;;70.47;17.90;;;;;;;;;;5015446;28;20037;-44
2021/08/11 01:55:40;;;;;;;91.78;18.83;;;;;;;;;;5029480;28;20048;-47
2021/08/11 01:58:07;;;;;;;77.75;18.95;;;;;;;;;;5030164;28;20064;-56
2021/08/11 02:00:34;;;;;;;67.13;17.38;;;;;;;;;;5027162;28;20030;-37
2021/08/11 02:03:04;;;;;;;84.25;17.92;;;;;;;;;;5025635;28;20140;-45
2021/08/11 02:05:31;;;;;;;76.68;17.27;;;;;;;;;;4997406;28;20018;-50
2021/08/11 02:08:03;;;;;;;76.10;16.90;;;;;;;;;;5033174;28;20057;-39
2021/08/11 02:10:30;;;;;;;;;;;;;;;;;;5030967;28;20025;-34
2021/08/11 02:12:57;;;;;;;74.35;17.13;;;;;;;;;;5027641;28;19917;-44
2021/08/11 02:15:24;;;;;;;67.80;15.25;;;;;;;;;;5020121;28;20388;-41
2021/08/11 02:17:51;;;;;;;62.03;14.93;;;;;;;;;;5021466;28;20531;-47
2021/08/11 02:20:18;;;;;;;60.22;15.90;;;;;;;;;;5026389;28;20048;-42
2021/08/11 02:22:45;;;;;;;62.55;14.63;;;;;;;;;;5020540;28;20034;-39
2021/08/11 02:25:13;;;;;;;61.60;14.23;;;;;;;;;;5030271;28;20025;-42
2021/08/11 02:27:43;;;;;;;61.60;14.32;;;;;;;;;;5013578;28;20033;-41
2021/08/11 02:30:13;;;;;;;59.42;14.80;;;;;;;;;;5031240;28;20021;-38
2021/08/11 02:32:42;;;;;;;61.22;13.82;;;;;;;;;;5032904;28;20045;-39
2021/08/11 02:35:14;;;;;;;61.95;14.70;;;;;;;;;;5021220;28;20120;-40
2021/08/11 02:37:49;;;;;;;67.75;15.25;;;;;;;;;;5018158;28;20024;-43
2021/08/11 02:40:20;;;;;;;62.17;15.13;;;;;;;;;;5028907;28;20459;-38
2021/08/11 02:42:52;;;;;;;53.92;14.40;;;;;;;;;;5014118;28;20030;-47
2021/08/11 02:45:19;;;;;;;68.07;13.43;;;;;;;;;;5017856;28;20032;-41
2021/08/11 02:47:48;;;;;;;63.22;13.60;;;;;;;;;;5016116;28;20025;-44
2021/08/11 02:50:16;;;;;;;52.78;13.82;;;;;;;;;;5015912;28;20068;-47
2021/08/11 02:52:44;;;;;;;51.50;13.70;;;;;;;;;;5016086;28;20351;-45
2021/08/11 02:55:11;;;;;;;56.40;13.43;;;;;;;;;;5028817;28;20024;-40
2021/08/11 02:57:38;;;;;;;56.15;13.32;;;;;;;;;;5033186;28;20424;-36
2021/08/11 03:00:07;;;;;;;50.45;13.23;;;;;;;;;;5028554;28;20052;-40
2021/08/11 03:02:34;;;;;;;57.25;13.15;;;;;;;;;;5023368;28;20045;-39
2021/08/11 03:05:01;;;;;;;54.70;13.55;;;;;;;;;;5022816;28;20540;-37
2021/08/11 03:07:29;;;;;;;53.38;12.70;;;;;;;;;;5030325;28;20034;-38
2021/08/11 03:09:56;;;;;;;41.33;11.70;;;;;;;;;;5029804;28;20014;-35
2021/08/11 03:12:23;;;;;;;43.17;12.80;;;;;;;;;;5027225;28;20041;-43
2021/08/11 03:14:50;;;;;;;53.30;11.88;;;;;;;;;;5029843;28;20120;-37
2021/08/11 03:17:17;;;;;;;44.22;12.00;;;;;;;;;;5027156;28;20503;-36
2021/08/11 03:19:45;;;;;;;47.97;11.63;;;;;;;;;;5027726;28;20021;-37
2021/08/11 03:22:12;;;;;;;45.70;12.25;;;;;;;;;;5028396;28;20466;-39
2021/08/11 03:24:40;;;;;;;51.65;14.68;;;;;;;;;;5031447;28;20442;-35
2021/08/11 03:27:07;;;;;;;45.55;12.15;;;;;;;;;;5029060;28;20104;-38
2021/08/11 03:29:34;;;;;;;36.55;12.15;;;;;;;;;;5020694;28;20022;-43
2021/08/11 03:32:01;;;;;;;45.78;11.48;;;;;;;;;;5029924;28;20049;-41
2021/08/11 03:34:28;;;;;;;41.95;11.95;;;;;;;;;;5031834;28;20017;-39
2021/08/11 03:36:56;;;;;;;40.20;11.68;;;;;;;;;;5032353;28;20102;-38
2021/08/11 03:39:23;;;;;;;55.28;11.90;;;;;;;;;;5032379;28;20009;-35
2021/08/11 03:41:50;;;;;;;38.35;11.30;;;;;;;;;;5027505;28;20025;-35
2021/08/11 03:44:17;;;;;;;36.03;10.70;;;;;;;;;;5032334;28;20030;-41
2021/08/11 03:46:44;;;;;;;37.63;11.48;;;;;;;;;;5032153;28;20033;-38
2021/08/11 03:49:11;;;;;;;39.70;11.55;;;;;;;;;;5031947;28;20037;-35
2021/08/11 03:51:38;;;;;;;45.13;11.80;;;;;;;;;;5027416;28;20025;-37
2021/08/11 03:54:05;;;;;;;44.53;11.75;;;;;;;;;;5018641;28;20029;-35
2021/08/11 03:56:32;;;;;;;37.08;11.48;;;;;;;;;;5031996;28;20048;-42
2021/08/11 03:58:59;;;;;;;40.90;11.27;;;;;;;;;;5031661;28;20021;-41
2021/08/11 04:01:26;;;;;;;37.13;11.25;;;;;;;;;;5024120;28;20034;-36
2021/08/11 04:03:53;;;;;;;39.58;11.00;;;;;;;;;;5010314;28;20057;-35
2021/08/11 04:06:20;;;;;;;37.35;10.63;;;;;;;;;;5019913;28;20026;-35
2021/08/11 04:08:47;;;;;;;35.67;11.05;;;;;;;;;;5015485;28;20540;-35
2021/08/11 04:11:14;;;;;;;36.67;9.85;;;;;;;;;;5027461;28;20117;-35
2021/08/11 04:13:41;;;;;;;31.67;11.55;;;;;;;;;;5030994;28;20014;-36
2021/08/11 04:16:08;;;;;;;35.78;10.35;;;;;;;;;;5031710;28;20473;-45
2021/08/11 04:18:35;;;;;;;31.50;9.65;;;;;;;;;;5031654;28;20013;-53
2021/08/11 04:21:02;;;;;;;31.42;10.07;;;;;;;;;;5030773;28;20100;-38
2021/08/11 04:23:29;;;;;;;29.73;8.75;;;;;;;;;;5027872;28;20044;-37
2021/08/11 04:25:56;;;;;;;33.20;9.27;;;;;;;;;;5031687;28;20065;-35
2021/08/11 04:28:25;;;;;;;30.77;8.73;;;;;;;;;;5031259;28;20018;-35
2021/08/11 04:30:52;;;;;;;29.40;8.80;;;;;;;;;;5031346;28;20025;-49
2021/08/11 04:33:19;;;;;;;22.63;8.43;;;;;;;;;;5026344;28;20099;-49
2021/08/11 04:35:46;;;;;;;23.17;7.68;;;;;;;;;;5031737;28;20049;-42
2021/08/11 04:38:13;;;;;;;30.15;8.02;;;;;;;;;;5031331;28;20034;-42
2021/08/11 04:40:40;;;;;;;24.52;8.27;;;;;;;;;;5013660;28;20104;-38
2021/08/11 04:43:07;;;;;;;24.92;7.10;;;;;;;;;;5024115;28;20123;-36
2021/08/11 04:45:36;;;;;;;26.35;7.60;;;;;;;;;;5017890;28;20096;-35
2021/08/11 04:48:03;;;;;;;20.95;7.55;;;;;;;;;;5031414;28;20120;-35
2021/08/11 04:50:30;;;;;;;27.70;7.57;;;;;;;;;;5031008;28;20105;-35
2021/08/11 04:52:57;;;;;;;27.23;8.35;;;;;;;;;;5026128;28;20033;-35
2021/08/11 04:55:25;;;;;;;22.45;7.13;;;;;;;;;;5031636;28;20022;-35
2021/08/11 04:57:52;;;;;;;19.17;7.30;;;;;;;;;;5013222;28;20025;-34
2021/08/11 05:00:19;;;;;;;18.65;7.10;;;;;;;;;;5030856;28;20084;-39
2021/08/11 05:02:46;;;;;;;19.98;6.70;;;;;;;;;;5019869;28;20057;-35
2021/08/11 05:05:13;;;;;;;18.63;6.50;;;;;;;;;;5030496;28;20075;-35
2021/08/11 05:07:40;;;;;;;19.80;6.97;;;;;;;;;;5029940;28;20575;-35
2021/08/11 05:10:07;;;;;;;15.27;6.43;;;;;;;;;;5031039;28;20026;-35
2021/08/11 05:12:35;;;;;;;13.00;6.05;;;;;;;;;;5023732;28;20489;-35
2021/08/11 05:15:02;;;;;;;21.10;6.43;;;;;;;;;;5029583;28;20477;-35
2021/08/11 05:17:29;;;;;;;16.10;6.05;;;;;;;;;;5030941;28;20091;-35
2021/08/11 05:19:56;;;;;;;18.75;6.13;;;;;;;;;;5030912;28;20057;-36
2021/08/11 05:22:23;;;;;;;24.88;6.55;;;;;;;;;;5024888;28;20026;-36
2021/08/11 05:24:50;;;;;;;16.13;5.43;;;;;;;;;;5026559;28;20025;-36
2021/08/11 05:27:18;;;;;;;17.25;5.43;;;;;;;;;;5030661;28;20049;-35
2021/08/11 05:29:46;;;;;;;17.55;6.03;;;;;;;;;;5030857;28;20041;-35
2021/08/11 05:32:13;;;;;;;21.58;6.07;;;;;;;;;;5013217;28;20079;-35
2021/08/11 05:34:40;;;;;;;17.00;5.70;;;;;;;;;;5025711;28;20421;-36
2021/08/11 05:37:07;;;;;;;14.55;4.93;;;;;;;;;;5031054;28;20029;-39
2021/08/11 05:39:34;;;;;;;14.77;5.43;;;;;;;;;;5030920;28;20103;-35
2021/08/11 05:42:01;;;;;;;13.32;4.72;;;;;;;;;;5032306;28;20037;-36
2021/08/11 05:44:28;;;;;;;15.23;5.13;;;;;;;;;;5029900;28;20500;-35
2021/08/11 05:46:55;;;;;;;17.83;5.13;;;;;;;;;;5034579;28;20061;-36
2021/08/11 05:49:22;;;;;;;16.80;4.82;;;;;;;;;;5034757;28;20061;-34
2021/08/11 05:51:49;;;;;;;15.07;4.30;;;;;;;;;;5034185;28;20116;-37
2021/08/11 05:54:16;;;;;;;15.07;4.50;;;;;;;;;;5029445;28;20075;-35
2021/08/11 05:56:43;;;;;;;13.32;4.82;;;;;;;;;;5034092;28;20060;-35
2021/08/11 05:59:10;;;;;;;11.95;4.10;;;;;;;;;;5034544;28;20033;-34
2021/08/11 06:01:37;;;;;;;13.77;4.53;;;;;;;;;;5034384;28;20024;-35
2021/08/11 06:04:05;;;;;;;10.75;4.10;;;;;;;;;;5028905;28;20041;-35
2021/08/11 06:06:32;;;;;;;13.02;4.78;;;;;;;;;;5017098;28;20040;-37
2021/08/11 06:08:59;;;;;;;11.77;3.97;;;;;;;;;;5034046;28;20021;-36
2021/08/11 06:11:26;;;;;;;13.88;4.03;;;;;;;;;;5034147;28;20017;-35
2021/08/11 06:13:53;;;;;;;13.35;4.00;;;;;;;;;;5031249;28;20048;-35
2021/08/11 06:16:21;;;;;;;14.18;4.00;;;;;;;;;;5031909;28;20519;-39
2021/08/11 06:18:48;;;;;;;9.65;3.33;;;;;;;;;;5034406;28;20100;-43
2021/08/11 06:21:15;;;;;;;12.57;3.63;;;;;;;;;;5033893;28;20029;-41
2021/08/11 06:23:42;;;;;;;12.95;3.83;;;;;;;;;;5024573;28;20132;-37
2021/08/11 06:26:09;;;;;;;9.88;3.63;;;;;;;;;;5026961;28;20083;-39
2021/08/11 06:28:36;;;;;;;8.48;3.05;;;;;;;;;;5032732;28;20535;-38
2021/08/11 06:31:03;;;;;;;6.45;3.20;;;;;;;;;;5032211;28;20034;-36
2021/08/11 06:33:30;;;;;;;9.13;3.42;;;;;;;;;;5033181;28;20490;-38
2021/08/11 06:35:57;;;;;;;8.07;3.05;;;;;;;;;;5028660;28;20450;-35
2021/08/11 06:38:24;;;;;;;7.82;3.17;;;;;;;;;;5032333;28;20038;-36
2021/08/11 06:40:51;;;;;;;8.95;3.10;;;;;;;;;;5033754;28;20079;-52
2021/08/11 06:43:19;;;;;;;7.00;3.17;;;;;;;;;;5033150;28;20068;-51
2021/08/11 06:45:46;;;;;;;9.48;3.10;;;;;;;;;;5028733;28;20048;-50
2021/08/11 06:48:13;;;;;;;9.30;2.78;;;;;;;;;;5033461;28;20048;-49
2021/08/11 06:50:40;;;;;;;15.30;3.28;;;;;;;;;;5033552;28;20032;-45
2021/08/11 06:53:07;;;;;;;5.97;3.03;;;;;;;;;;5031700;28;20393;-49
2021/08/11 06:55:34;;;;;;;8.75;2.97;;;;;;;;;;5028531;28;20030;-50
2021/08/11 06:58:01;;;;;;;7.88;3.00;;;;;;;;;;5033060;28;20101;-51
2021/08/11 07:00:28;;;;;;;6.57;2.55;;;;;;;;;;5033344;28;20032;-50
2021/08/11 07:02:55;;;;;;;8.68;3.00;;;;;;;;;;5032755;28;20076;-49
2021/08/11 07:05:22;;;;;;;8.93;2.95;;;;;;;;;;5024552;28;20033;-43
2021/08/11 07:07:49;;;;;;;7.20;2.40;;;;;;;;;;5012673;28;20032;-48
2021/08/11 07:10:17;;;;;;;8.65;2.80;;;;;;;;;;5032788;28;20507;-39
2021/08/11 07:12:44;;;;;;;7.85;2.70;;;;;;;;;;5014827;28;20036;-40
2021/08/11 07:15:12;;;;;;;4.20;2.10;;;;;;;;;;5030664;28;20031;-44
2021/08/11 07:17:59;;;;;;;8.10;2.63;;;;;;;;;;5026114;28;20064;-40
2021/08/11 07:20:27;;;;;;;8.68;2.40;;;;;;;;;;5033043;28;20030;-46
2021/08/11 07:22:55;;;;;;;6.65;2.08;;;;;;;;;;5032060;28;20075;-36
2021/08/11 07:25:23;;;;;;;7.65;2.40;;;;;;;;;;5031248;28;20025;-37
2021/08/11 07:27:50;;;;;;;5.90;2.70;;;;;;;;;;5027196;28;20501;-36
2021/08/11 07:30:17;;;;;;;5.75;2.20;;;;;;;;;;5028090;28;20485;-39
2021/08/11 07:32:44;;;;;;;6.45;2.20;;;;;;;;;;5032129;28;20069;-35
2021/08/11 07:35:12;;;;;;;5.30;2.13;;;;;;;;;;5032480;28;20455;-35
2021/08/11 07:37:53;;;;;;;8.43;2.08;;;;;;;;;;5028087;28;20116;-35
2021/08/11 07:40:21;;;;;;;6.65;2.25;;;;;;;;;;5032579;28;20026;-35
2021/08/11 07:42:48;;;;;;;7.35;2.95;;;;;;;;;;5032030;28;20084;-35
2021/08/11 07:45:16;;;;;;;4.65;1.85;;;;;;;;;;5032376;28;20025;-36
2021/08/11 07:47:48;;;;;;;5.55;2.13;;;;;;;;;;5028008;28;20051;-37
2021/08/11 07:50:16;;;;;;;3.95;2.10;;;;;;;;;;5032075;28;20029;-35
2021/08/11 07:52:44;;;;;;;9.95;2.50;;;;;;;;;;5032269;28;20072;-37
2021/08/11 07:55:11;;;;;;;4.20;1.73;;;;;;;;;;5030792;28;20128;-35
2021/08/11 07:57:39;;;;;;;4.85;2.08;;;;;;;;;;5027624;28;20029;-36
2021/08/11 08:00:07;;;;;;;6.50;2.28;;;;;;;;;;5031880;28;20049;-36
2021/08/11 08:02:34;;;;;;;5.07;1.80;;;;;;;;;;5031988;28;20397;-37
2021/08/11 08:05:02;;;;;;;7.72;2.17;;;;;;;;;;5031224;28;20032;-35
2021/08/11 08:07:29;;;;;;;4.45;1.65;;;;;;;;;;5027366;28;20021;-37
2021/08/11 08:09:57;;;;;;;4.88;1.60;;;;;;;;;;5031976;28;20032;-38
2021/08/11 08:12:25;;;;;;;5.40;1.77;;;;;;;;;;5032016;28;20061;-39
2021/08/11 08:14:52;;;;;;;4.90;1.95;;;;;;;;;;5031803;28;20044;-38
2021/08/11 08:17:19;;;;;;;4.32;1.60;;;;;;;;;;5027041;28;20034;-38
2021/08/11 08:19:46;;;;;;;6.07;1.92;;;;;;;;;;5032145;28;20057;-38
2021/08/11 08:22:17;;;;;;;7.13;2.05;;;;;;;;;;5031657;28;20029;-35
2021/08/11 08:24:47;;;;;;;6.80;1.98;;;;;;;;;;5031721;28;20497;-35
2021/08/11 08:27:14;;;;;;;2.67;1.23;;;;;;;;;;5028249;28;21818;-38
2021/08/11 08:29:41;;;;;;;3.63;1.63;;;;;;;;;;5030616;28;20018;-35
2021/08/11 08:32:08;;;;;;;3.30;1.73;;;;;;;;;;5030192;28;20136;-35
2021/08/11 08:34:35;;;;;;;4.22;1.40;;;;;;;;;;5030875;28;20370;-35
2021/08/11 08:37:02;;;;;;;4.47;1.40;;;;;;;;;;5031383;28;20026;-35
2021/08/11 08:39:29;;;;;;;5.03;1.42;;;;;;;;;;5025257;28;20543;-35
2021/08/11 08:41:57;;;;;;;4.95;1.40;;;;;;;;;;5031222;28;20057;-35
2021/08/11 08:44:24;;;;;;;3.63;1.38;;;;;;;;;;5031538;28;20120;-35
2021/08/11 08:46:56;;;;;;;4.82;1.50;;;;;;;;;;5029759;28;20078;-38
2021/08/11 08:49:23;;;;;;;5.32;1.70;;;;;;;;;;5020257;28;20022;-37
2021/08/11 08:51:51;;;;;;;3.90;1.52;;;;;;;;;;5031482;28;20389;-37
2021/08/11 08:54:21;;;;;;;4.13;1.40;;;;;;;;;;5031216;28;20029;-36
2021/08/11 08:56:49;;;;;;;4.20;1.50;;;;;;;;;;5031386;28;20029;-38
2021/08/11 08:59:16;;;;;;;3.05;1.40;;;;;;;;;;5019225;28;20159;-39
2021/08/11 09:01:43;;;;;;;3.63;1.40;;;;;;;;;;5031063;28;20026;-37
2021/08/11 09:04:10;;;;;;;5.18;1.77;;;;;;;;;;5031066;28;20030;-37
2021/08/11 09:06:38;;;;;;;4.13;1.30;;;;;;;;;;5031465;28;20104;-53
2021/08/11 09:09:07;;;;;;;5.15;1.70;;;;;;;;;;5026602;28;20025;-52
2021/08/11 09:11:35;;;;;;;4.22;1.60;;;;;;;;;;5031016;28;20059;-49
2021/08/11 09:14:22;;;;;;;4.45;1.23;;;;;;;;;;5031020;28;20432;-51
2021/08/11 09:16:51;;;;;;;3.45;1.30;;;;;;;;;;5032945;28;20025;-49
2021/08/11 09:19:18;;;;;;;4.18;1.20;;;;;;;;;;5024745;28;20096;-52
2021/08/11 09:22:05;;;;;;;5.38;1.60;;;;;;;;;;5034995;28;20497;-50
2021/08/11 09:24:34;;;;;;;3.05;1.23;;;;;;;;;;5035081;28;20416;-50
2021/08/11 09:27:22;;;;;;;5.50;1.45;;;;;;;;;;5017284;28;20384;-44
2021/08/11 09:30:06;;;;;;;4.55;1.20;;;;;;;;;;5026674;28;20040;-50
2021/08/11 09:32:50;;;;;;;5.40;1.67;;;;;;;;;;5034749;28;20084;-46
2021/08/11 09:35:24;;;;;;;2.60;1.10;;;;;;;;;;5035257;28;20049;-50
2021/08/11 09:37:52;;;;;;;4.82;1.33;;;;;;;;;;5035243;28;20056;-42
2021/08/11 09:40:20;;;;;;;8.05;1.73;;;;;;;;;;5028160;28;20053;-50
2021/08/11 09:42:48;;;;;;;7.22;1.05;;;;;;;;;;5034680;28;20030;-50
2021/08/11 09:45:16;;;;;;;3.55;1.20;;;;;;;;;;5034929;28;20104;-50
2021/08/11 09:47:56;;;;;;;6.93;1.60;;;;;;;;;;5033529;28;20476;-48
2021/08/11 09:50:37;;;;;;;4.63;1.45;;;;;;;;;;5021598;28;20021;-45
2021/08/11 09:53:04;;;;;;;3.65;1.33;;;;;;;;;;5034743;28;20512;-35
2021/08/11 09:55:31;;;;;;;4.93;1.42;;;;;;;;;;5034334;28;20017;-48
2021/08/11 09:57:58;;;;;;;4.47;1.40;;;;;;;;;;5034575;28;20469;-37
2021/08/11 10:00:38;;;;;;;5.15;1.83;;;;;;;;;;5023436;28;20018;-35
2021/08/11 10:03:05;;;;;;;4.82;1.50;;;;;;;;;;5033718;28;20048;-35
2021/08/11 10:05:34;;;;;;;4.82;1.40;;;;;;;;;;5034249;28;20022;-35
2021/08/11 10:08:01;;;;;;;3.97;1.30;;;;;;;;;;5034250;28;20021;-36
2021/08/11 10:10:28;;;;;;;4.97;1.40;;;;;;;;;;5019683;28;20022;-41
2021/08/11 10:12:57;;;;;;;8.73;1.60;;;;;;;;;;5032580;28;20078;-49
2021/08/11 10:15:24;;;;;;;4.50;1.60;;;;;;;;;;5008487;28;20018;-46
2021/08/11 10:17:53;;;;;;;3.28;1.38;;;;;;;;;;5021753;28;20021;-44
2021/08/11 10:20:21;;;;;;;5.55;1.27;;;;;;;;;;5022776;28;20141;-44
2021/08/11 10:22:48;;;;;;;7.65;1.85;;;;;;;;;;5032872;28;20105;-40
2021/08/11 10:25:16;;;;;;;4.68;1.77;;;;;;;;;;5027482;28;20037;-42
2021/08/11 10:27:46;;;;;;;4.13;1.42;;;;;;;;;;5015281;28;20021;-46
2021/08/11 10:30:14;;;;;;;4.50;1.77;;;;;;;;;;5023680;28;20061;-43
2021/08/11 10:32:42;;;;;;;2.90;1.13;;;;;;;;;;5032970;28;20132;-50
2021/08/11 10:35:09;;;;;;;5.35;1.92;;;;;;;;;;5034161;28;20472;-46
2021/08/11 10:37:36;;;;;;;4.93;1.50;;;;;;;;;;5032310;28;20057;-41
2021/08/11 10:40:04;;;;;;;6.18;2.10;;;;;;;;;;5032445;28;20026;-41
2021/08/11 10:42:32;;;;;;;5.13;1.60;;;;;;;;;;5030491;28;20045;-42
2021/08/11 10:45:00;;;;;;;6.80;1.73;;;;;;;;;;5032517;28;20014;-44
2021/08/11 10:47:30;;;;;;;4.53;1.38;;;;;;;;;;5021319;28;20029;-42
2021/08/11 10:49:59;;;;;;;7.43;1.55;;;;;;;;;;5030590;28;20022;-47
2021/08/11 10:52:26;;;;;;;4.05;1.48;;;;;;;;;;5028294;28;20057;-43
2021/08/11 10:54:54;;;;;;;8.93;1.65;;;;;;;;;;5033404;28;20026;-38
2021/08/11 10:57:40;;;;;;;7.32;1.73;;;;;;;;;;5033230;28;20017;-40
2021/08/11 11:00:29;;;;;;;5.78;1.48;;;;;;;;;;5033105;28;20024;-46
2021/08/11 11:02:59;;;;;;;9.90;2.30;;;;;;;;;;5011782;28;20041;-39
2021/08/11 11:05:31;;;;;;;4.50;1.63;;;;;;;;;;5033167;28;20535;-43
2021/08/11 11:08:11;;;;;;;5.93;1.70;;;;;;;;;;5032710;28;20499;-46
2021/08/11 11:10:39;;;;;;;5.80;1.95;;;;;;;;;;5032460;28;20159;-40
2021/08/11 11:13:33;;;;;;;4.78;1.45;;;;;;;;;;5020043;28;20036;-36
2021/08/11 11:16:04;;;;;;;6.18;1.63;;;;;;;;;;5032792;28;20022;-42
2021/08/11 11:18:34;;;;;;;5.78;1.60;;;;;;;;;;5014954;28;20071;-45
2021/08/11 11:21:02;;;;;;;7.65;1.60;;;;;;;;;;5031078;28;20045;-39
2021/08/11 11:23:32;;;;;;;7.65;1.63;;;;;;;;;;5023100;28;20025;-40
2021/08/11 11:26:15;;;;;;;5.05;1.70;;;;;;;;;;5026866;28;20021;-43
2021/08/11 11:28:55;;;;;;;6.50;1.67;;;;;;;;;;5019619;28;20350;-41
2021/08/11 11:31:40;;;;;;;5.65;1.50;;;;;;;;;;5026531;28;20114;-38
2021/08/11 11:34:20;;;;;;;7.25;1.30;;;;;;;;;;5030370;28;20113;-44
2021/08/11 11:37:06;;;;;;;7.03;1.42;;;;;;;;;;5018338;28;20044;-37
2021/08/11 11:39:35;;;;;;;5.78;1.73;;;;;;;;;;5030723;28;20481;-45
2021/08/11 11:42:09;;;;;;;7.88;1.85;;;;;;;;;;5028008;28;20105;-48
2021/08/11 11:44:48;;;;;;;7.57;1.60;;;;;;;;;;5031185;28;20083;-49
2021/08/11 11:47:19;;;;;;;5.05;1.50;;;;;;;;;;5024456;28;20033;-40
2021/08/11 11:49:47;;;;;;;3.95;1.52;;;;;;;;;;5014778;28;20057;-35
2021/08/11 11:52:17;;;;;;;6.00;1.58;;;;;;;;;;5025046;28;20040;-33
2021/08/11 11:54:48;;;;;;;7.53;2.05;;;;;;;;;;5021642;28;20553;-35
2021/08/11 11:57:17;;;;;;;8.52;2.20;;;;;;;;;;5022156;28;20029;-35
2021/08/11 11:59:48;;;;;;;5.75;1.75;;;;;;;;;;5023225;28;20025;-36
2021/08/11 12:02:24;;;;;;;5.90;2.03;;;;;;;;;;5013291;28;20050;-39
2021/08/11 12:05:00;;;;;;;2.90;1.13;;;;;;;;;;5023085;28;20100;-35
2021/08/11 12:07:33;;;;;;;4.63;1.30;;;;;;;;;;5019821;28;20060;-35
2021/08/11 12:10:01;;;;;;;6.53;1.80;;;;;;;;;;5013694;28;20025;-34
2021/08/11 12:12:28;;;;;;;5.20;1.52;;;;;;;;;;5017007;28;20030;-42
2021/08/11 12:15:15;;;;;;;7.32;1.52;;;;;;;;;;5013828;28;20033;-36
2021/08/11 12:17:42;;;;;;;5.88;2.10;;;;;;;;;;4994268;28;20030;-36
2021/08/11 12:20:28;;;;;;;3.95;1.67;;;;;;;;;;5025853;28;20025;-39
2021/08/11 12:22:55;;;;;;;7.00;2.08;;;;;;;;;;5027025;28;20123;-38
2021/08/11 12:25:23;;;;;;;6.55;1.50;;;;;;;;;;5020707;28;20018;-35
2021/08/11 12:28:27;;;;;;;4.47;1.50;;;;;;;;;;5030799;28;20034;-36
2021/08/11 12:30:54;;;;;;;9.05;2.00;;;;;;;;;;5007824;28;20025;-36
2021/08/11 12:33:23;;;;;;;10.75;2.25;;;;;;;;;;5017299;28;20541;-36
2021/08/11 12:35:52;;;;;;;9.18;1.73;;;;;;;;;;5024125;28;20468;-34
2021/08/11 12:38:45;;;;;;;4.18;1.58;;;;;;;;;;5030885;28;20027;-35
2021/08/11 12:41:21;;;;;;;9.43;1.95;;;;;;;;;;5007585;28;20029;-34
2021/08/11 12:43:49;;;;;;;5.93;1.70;;;;;;;;;;5010456;28;20078;-36
2021/08/11 12:46:16;;;;;;;4.60;1.70;;;;;;;;;;5029522;28;20025;-45
2021/08/11 12:48:43;;;;;;;5.90;1.80;;;;;;;;;;5029727;28;20018;-39
2021/08/11 12:51:25;;;;;;;5.93;1.70;;;;;;;;;;5031065;28;20025;-38
2021/08/11 12:54:07;;;;;;;6.38;1.85;;;;;;;;;;5024595;28;20030;-34
2021/08/11 12:56:35;;;;;;;4.15;1.80;;;;;;;;;;5030633;28;20398;-34
2021/08/11 12:59:08;;;;;;;6.10;1.63;;;;;;;;;;5022804;28;20415;-37
2021/08/11 13:01:42;;;;;;;6.65;1.77;;;;;;;;;;5022464;28;20417;-35
2021/08/11 13:04:16;;;;;;;5.88;2.10;;;;;;;;;;5011587;28;20042;-35
2021/08/11 13:06:46;;;;;;;7.18;2.10;;;;;;;;;;5030012;28;20034;-34
2021/08/11 13:09:25;;;;;;;5.05;1.75;;;;;;;;;;5019876;28;20018;-49
2021/08/11 13:11:52;;;;;;;16.45;2.10;;;;;;;;;;5020324;28;20018;-38
2021/08/11 13:14:38;;;;;;;9.88;2.25;;;;;;;;;;5011429;28;20116;-37
2021/08/11 13:17:06;;;;;;;7.47;1.70;;;;;;;;;;5018632;28;20489;-37
2021/08/11 13:19:33;;;;;;;6.90;2.28;;;;;;;;;;5015517;28;21365;-40
2021/08/11 13:22:00;;;;;;;6.00;1.83;;;;;;;;;;5027335;28;20026;-38
2021/08/11 13:24:27;;;;;;;7.80;2.00;;;;;;;;;;5023718;28;20065;-39
2021/08/11 13:26:58;;;;;;;10.43;2.17;;;;;;;;;;5020160;28;20018;-42
2021/08/11 13:29:29;;;;;;;8.63;1.98;;;;;;;;;;5001439;28;20099;-40
2021/08/11 13:31:57;;;;;;;9.00;2.22;;;;;;;;;;5024271;28;20073;-40
2021/08/11 13:34:24;;;;;;;9.43;2.17;;;;;;;;;;5028553;28;20492;-40
2021/08/11 13:36:51;;;;;;;8.05;2.05;;;;;;;;;;5026222;28;20035;-50
2021/08/11 13:39:18;;;;;;;8.38;2.72;;;;;;;;;;5029358;28;20025;-51
2021/08/11 13:41:45;;;;;;;7.22;1.95;;;;;;;;;;5024202;28;20412;-45
2021/08/11 13:44:12;;;;;;;7.35;2.20;;;;;;;;;;5008147;28;20045;-51
2021/08/11 13:46:40;;;;;;;11.15;2.55;;;;;;;;;;5021570;28;20066;-45
2021/08/11 13:49:08;;;;;;;11.02;2.13;;;;;;;;;;5025822;28;20029;-43
2021/08/11 13:51:36;;;;;;;12.10;2.60;;;;;;;;;;5020276;28;20034;-38
2021/08/11 13:54:03;;;;;;;17.20;2.47;;;;;;;;;;5025867;28;20018;-48
2021/08/11 13:56:30;;;;;;;9.23;2.05;;;;;;;;;;5021710;28;20025;-37
2021/08/11 13:58:58;;;;;;;12.48;2.42;;;;;;;;;;5029102;28;20025;-40
2021/08/11 14:01:25;;;;;;;8.63;2.20;;;;;;;;;;5024108;28;20028;-43
2021/08/11 14:03:52;;;;;;;15.05;3.05;;;;;;;;;;5029717;28;20120;-44
2021/08/11 14:06:19;;;;;;;9.93;1.88;;;;;;;;;;5028485;28;20022;-44
2021/08/11 14:08:46;;;;;;;12.00;2.65;;;;;;;;;;5033342;28;20076;-47
2021/08/11 14:11:13;;;;;;;10.77;2.42;;;;;;;;;;5025488;28;20020;-49
2021/08/11 14:13:41;;;;;;;12.10;2.38;;;;;;;;;;5019493;28;20422;-44
2021/08/11 14:16:08;;;;;;;13.00;2.70;;;;;;;;;;5008781;28;20448;-49
2021/08/11 14:18:35;;;;;;;10.40;2.13;;;;;;;;;;5032847;28;20040;-52
2021/08/11 14:21:02;;;;;;;16.27;2.38;;;;;;;;;;5029119;28;20021;-38
2021/08/11 14:23:29;;;;;;;8.02;2.10;;;;;;;;;;5018016;28;20095;-37
2021/08/11 14:25:56;;;;;;;11.32;2.30;;;;;;;;;;5002679;28;20026;-38
2021/08/11 14:28:23;;;;;;;13.70;2.05;;;;;;;;;;5032229;28;20073;-39
2021/08/11 14:30:50;;;;;;;10.63;2.47;;;;;;;;;;5032945;28;20021;-41
2021/08/11 14:33:17;;;;;;;13.88;2.90;;;;;;;;;;5022758;28;20036;-41
2021/08/11 14:35:44;;;;;;;11.43;2.50;;;;;;;;;;5028331;28;20017;-37
2021/08/11 14:38:11;;;;;;;14.27;2.58;;;;;;;;;;5028867;28;20480;-42
2021/08/11 14:40:38;;;;;;;12.80;2.33;;;;;;;;;;5015837;28;20112;-37
2021/08/11 14:43:05;;;;;;;8.50;2.42;;;;;;;;;;5019787;28;20041;-38
2021/08/11 14:45:32;;;;;;;11.00;2.10;;;;;;;;;;5009406;28;20699;-37